Time;durP1;ratioP1;P1;durP2;ratioP2;P2;SDS_P1;SDS_P2;PMS_P1;PMS_P2;Temp;Humidity;BMP_temperature;BMP_pressure;BME280_temperature;BME280_humidity;BME280_pressure;Samples;Min_cycle;Max_cycle;Signal;HPM_P1;HPM_P2
2021/07/21 00:00:34;;;;;;;10.38;6.75;;;;;;;;;;4403996;32;20634;-56
2021/07/21 00:02:59;;;;;;;8.13;5.95;;;;;;;;;;4404451;32;20198;-56
2021/07/21 00:05:26;;;;;;;9.57;6.78;;;;;;;;;;4403232;32;20380;-55
2021/07/21 00:07:53;;;;;;;9.05;6.28;;;;;;;;;;4404217;32;20282;-55
2021/07/21 00:10:21;;;;;;;8.82;6.07;;;;;;;;;;4404054;32;20213;-55
2021/07/21 00:15:33;;;;;;;9.85;5.53;;;;;;;;;;4404091;32;20574;-56
2021/07/21 00:18:14;;;;;;;6.80;4.75;;;;;;;;;;4404225;32;20202;-56
2021/07/21 00:20:39;;;;;;;7.32;4.90;;;;;;;;;;4404476;32;20201;-55
2021/07/21 00:23:05;;;;;;;7.85;5.15;;;;;;;;;;4404592;32;20228;-55
2021/07/21 00:25:30;;;;;;;8.68;5.47;;;;;;;;;;4404411;32;20285;-55
2021/07/21 00:27:56;;;;;;;9.80;5.20;;;;;;;;;;4404138;32;20280;-55
2021/07/21 00:30:21;;;;;;;9.80;5.47;;;;;;;;;;4404029;32;20272;-55
2021/07/21 00:32:47;;;;;;;10.48;7.20;;;;;;;;;;4403935;32;20292;-57
2021/07/21 00:35:15;;;;;;;9.27;7.32;;;;;;;;;;4404114;32;20344;-56
2021/07/21 00:37:40;;;;;;;13.38;10.25;;;;;;;;;;4404006;32;20521;-55
2021/07/21 00:40:08;;;;;;;8.93;8.00;;;;;;;;;;4404513;32;20901;-55
2021/07/21 00:42:34;;;;;;;10.10;7.43;;;;;;;;;;4403601;32;21010;-55
2021/07/21 00:45:00;;;;;;;11.93;7.82;;;;;;;;;;4404236;32;20214;-56
2021/07/21 00:47:25;;;;;;;15.23;7.10;;;;;;;;;;4404434;32;20318;-55
2021/07/21 00:49:51;;;;;;;8.70;5.72;;;;;;;;;;4403318;32;20267;-56
2021/07/21 00:52:17;;;;;;;14.98;7.05;;;;;;;;;;4407095;32;20650;-55
2021/07/21 00:54:45;;;;;;;10.38;6.82;;;;;;;;;;4407043;32;20686;-55
2021/07/21 00:57:11;;;;;;;9.15;5.93;;;;;;;;;;4407255;32;20257;-55
2021/07/21 00:59:37;;;;;;;10.70;5.60;;;;;;;;;;4406825;32;20252;-55
2021/07/21 01:02:04;;;;;;;8.75;6.68;;;;;;;;;;4407518;32;20284;-55
2021/07/21 01:04:32;;;;;;;12.40;6.45;;;;;;;;;;4404791;32;20241;-55
2021/07/21 01:06:59;;;;;;;10.05;6.20;;;;;;;;;;4392022;32;20268;-56
2021/07/21 01:09:25;;;;;;;17.58;7.28;;;;;;;;;;4390792;32;20230;-55
2021/07/21 01:11:53;;;;;;;8.30;6.12;;;;;;;;;;4390480;32;20608;-55
2021/07/21 01:14:32;;;;;;;14.57;5.87;;;;;;;;;;4391454;32;20310;-55
2021/07/21 01:17:01;;;;;;;11.10;7.47;;;;;;;;;;4391630;32;20205;-55
2021/07/21 01:19:48;;;;;;;11.70;7.47;;;;;;;;;;4391460;32;20289;-55
2021/07/21 01:22:19;;;;;;;11.48;6.55;;;;;;;;;;4391447;32;20206;-55
2021/07/21 01:24:59;;;;;;;9.38;6.65;;;;;;;;;;4391763;32;20218;-55
2021/07/21 01:27:39;;;;;;;18.60;7.55;;;;;;;;;;4391607;32;20599;-55
2021/07/21 01:30:20;;;;;;;9.82;6.78;;;;;;;;;;4391854;32;20217;-55
2021/07/21 01:32:59;;;;;;;7.50;5.78;;;;;;;;;;4391342;32;20698;-55
2021/07/21 01:35:29;;;;;;;8.85;6.90;;;;;;;;;;4391086;32;20191;-55
2021/07/21 01:37:58;;;;;;;11.05;6.55;;;;;;;;;;4397129;32;20248;-55
2021/07/21 01:40:27;;;;;;;14.15;7.20;;;;;;;;;;4406188;32;20642;-55
2021/07/21 01:42:56;;;;;;;8.75;6.70;;;;;;;;;;4405761;32;20281;-55
2021/07/21 01:45:24;;;;;;;12.40;7.47;;;;;;;;;;4406166;32;20261;-56
2021/07/21 01:47:51;;;;;;;20.05;7.78;;;;;;;;;;4406253;32;20228;-55
2021/07/21 01:50:17;;;;;;;12.98;8.70;;;;;;;;;;4405841;32;20341;-56
2021/07/21 01:52:48;;;;;;;15.45;8.20;;;;;;;;;;4406489;32;20272;-56
2021/07/21 01:55:15;;;;;;;12.43;7.80;;;;;;;;;;4406112;32;20602;-55
2021/07/21 01:57:42;;;;;;;12.27;8.38;;;;;;;;;;4406068;32;20221;-55
2021/07/21 02:00:11;;;;;;;13.25;8.05;;;;;;;;;;4406253;32;20248;-55
2021/07/21 02:02:37;;;;;;;9.57;7.05;;;;;;;;;;4405448;32;20210;-56
2021/07/21 02:05:05;;;;;;;11.35;6.90;;;;;;;;;;4405761;32;20273;-55
2021/07/21 02:07:32;;;;;;;10.30;7.12;;;;;;;;;;4404748;32;20237;-56
2021/07/21 02:09:57;;;;;;;9.40;6.65;;;;;;;;;;4406092;32;20807;-55
2021/07/21 02:12:23;;;;;;;10.93;7.05;;;;;;;;;;4405988;32;20224;-55
2021/07/21 02:14:49;;;;;;;10.15;7.00;;;;;;;;;;4405712;32;20653;-55
2021/07/21 02:17:16;;;;;;;11.12;6.37;;;;;;;;;;4406259;32;20287;-56
2021/07/21 02:19:43;;;;;;;9.23;6.90;;;;;;;;;;4406318;32;20578;-54
2021/07/21 02:22:11;;;;;;;9.23;7.05;;;;;;;;;;4406281;32;20206;-55
2021/07/21 02:24:36;;;;;;;12.55;7.47;;;;;;;;;;4405916;32;20767;-55
2021/07/21 02:27:02;;;;;;;11.38;6.87;;;;;;;;;;4405845;32;20284;-55
2021/07/21 02:29:28;;;;;;;12.43;6.47;;;;;;;;;;4405304;32;20229;-55
2021/07/21 02:32:08;;;;;;;10.70;7.10;;;;;;;;;;4405546;32;20724;-57
2021/07/21 02:34:33;;;;;;;9.52;7.10;;;;;;;;;;4405923;32;20221;-54
2021/07/21 02:36:59;;;;;;;11.60;7.03;;;;;;;;;;4405341;32;20304;-56
2021/07/21 02:39:25;;;;;;;11.05;7.85;;;;;;;;;;4405806;32;20217;-55
2021/07/21 02:41:51;;;;;;;17.60;7.60;;;;;;;;;;4405374;32;20300;-56
2021/07/21 02:44:17;;;;;;;13.38;7.75;;;;;;;;;;4405193;32;20666;-55
2021/07/21 02:46:43;;;;;;;12.57;7.20;;;;;;;;;;4405252;32;20280;-56
2021/07/21 02:49:08;;;;;;;11.10;7.95;;;;;;;;;;4405720;32;20655;-56
2021/07/21 02:51:46;;;;;;;10.13;7.93;;;;;;;;;;4405642;32;20391;-55
2021/07/21 02:54:17;;;;;;;11.32;8.00;;;;;;;;;;4395919;32;20281;-55
2021/07/21 02:56:51;;;;;;;10.27;6.75;;;;;;;;;;4389633;32;20285;-56
2021/07/21 02:59:20;;;;;;;7.62;6.65;;;;;;;;;;4389580;32;20267;-55
2021/07/21 03:01:48;;;;;;;14.25;7.50;;;;;;;;;;4389824;32;20361;-56
2021/07/21 03:04:24;;;;;;;11.35;7.60;;;;;;;;;;4390106;32;20241;-54
2021/07/21 03:06:52;;;;;;;14.48;8.27;;;;;;;;;;4390455;32;20610;-55
2021/07/21 03:09:21;;;;;;;17.50;10.15;;;;;;;;;;4389946;32;20229;-56
2021/07/21 03:11:50;;;;;;;13.30;8.20;;;;;;;;;;4389355;32;20334;-55
2021/07/21 03:14:18;;;;;;;12.00;8.43;;;;;;;;;;4389661;32;20380;-55
2021/07/21 03:16:47;;;;;;;11.82;8.23;;;;;;;;;;4388562;32;20884;-56
2021/07/21 03:19:17;;;;;;;11.55;8.00;;;;;;;;;;4389852;32;20643;-55
2021/07/21 03:21:43;;;;;;;16.50;8.48;;;;;;;;;;4388579;32;20261;-55
2021/07/21 03:24:10;;;;;;;13.93;8.68;;;;;;;;;;4389929;32;20218;-55
2021/07/21 03:26:36;;;;;;;10.95;7.35;;;;;;;;;;4389616;32;20690;-56
2021/07/21 03:29:03;;;;;;;16.08;7.62;;;;;;;;;;4389252;32;20260;-55
2021/07/21 03:31:28;;;;;;;11.23;8.23;;;;;;;;;;4395395;32;20610;-56
2021/07/21 03:34:16;;;;;;;15.18;7.97;;;;;;;;;;4404860;32;20260;-55
2021/07/21 03:36:46;;;;;;;9.32;7.40;;;;;;;;;;4404456;32;20229;-54
2021/07/21 03:39:13;;;;;;;13.82;8.65;;;;;;;;;;4404996;32;20243;-54
2021/07/21 03:41:39;;;;;;;11.82;7.07;;;;;;;;;;4403232;32;20335;-54
2021/07/21 03:44:07;;;;;;;10.10;7.35;;;;;;;;;;4404645;32;20719;-55
2021/07/21 03:46:36;;;;;;;13.93;7.40;;;;;;;;;;4403444;32;20345;-56
2021/07/21 03:49:01;;;;;;;13.07;7.85;;;;;;;;;;4404799;32;20256;-55
2021/07/21 03:51:31;;;;;;;13.80;8.93;;;;;;;;;;4404383;32;20280;-57
2021/07/21 03:53:57;;;;;;;12.32;8.90;;;;;;;;;;4404587;32;20221;-55
2021/07/21 03:56:24;;;;;;;17.70;10.57;;;;;;;;;;4404745;32;20283;-57
2021/07/21 03:58:51;;;;;;;19.00;8.73;;;;;;;;;;4404486;32;20233;-56
2021/07/21 04:01:17;;;;;;;21.00;8.75;;;;;;;;;;4404671;32;20336;-57
2021/07/21 04:03:43;;;;;;;18.37;9.85;;;;;;;;;;4389482;32;20256;-56
2021/07/21 04:06:10;;;;;;;19.00;10.25;;;;;;;;;;4389290;32;20290;-56
2021/07/21 04:08:36;;;;;;;12.75;8.18;;;;;;;;;;4389316;32;20622;-55
2021/07/21 04:11:01;;;;;;;11.95;8.75;;;;;;;;;;4388883;32;20328;-55
2021/07/21 04:13:28;;;;;;;18.17;9.20;;;;;;;;;;4388745;32;20222;-56
2021/07/21 04:15:55;;;;;;;12.48;9.00;;;;;;;;;;4389052;32;20288;-55
2021/07/21 04:18:22;;;;;;;15.10;8.63;;;;;;;;;;4388781;32;20289;-55
2021/07/21 04:20:50;;;;;;;12.13;8.55;;;;;;;;;;4389507;32;20197;-55
2021/07/21 04:23:17;;;;;;;15.38;8.07;;;;;;;;;;4389359;32;20286;-55
2021/07/21 04:25:43;;;;;;;11.05;7.85;;;;;;;;;;4391473;32;20782;-56
2021/07/21 04:28:10;;;;;;;14.35;9.02;;;;;;;;;;4394002;32;20275;-55
2021/07/21 04:30:36;;;;;;;11.18;8.27;;;;;;;;;;4394719;32;20773;-56
2021/07/21 04:33:02;;;;;;;16.70;8.95;;;;;;;;;;4396871;32;20210;-55
2021/07/21 04:35:28;;;;;;;16.75;9.30;;;;;;;;;;4393066;32;20387;-56
2021/07/21 04:37:54;;;;;;;14.10;9.25;;;;;;;;;;4399393;32;20361;-55
2021/07/21 04:40:21;;;;;;;18.25;8.60;;;;;;;;;;4409082;32;20267;-55
2021/07/21 04:42:47;;;;;;;12.43;8.85;;;;;;;;;;4408272;32;20580;-56
2021/07/21 04:45:13;;;;;;;17.80;9.30;;;;;;;;;;4408914;32;20296;-55
2021/07/21 04:47:40;;;;;;;16.62;9.60;;;;;;;;;;4409271;32;20280;-55
2021/07/21 04:50:10;;;;;;;13.00;9.32;;;;;;;;;;4409311;32;20456;-55
2021/07/21 04:52:36;;;;;;;15.52;9.45;;;;;;;;;;4409305;32;20551;-56
2021/07/21 04:55:03;;;;;;;14.27;9.55;;;;;;;;;;4409427;32;20237;-55
2021/07/21 04:57:29;;;;;;;12.40;8.77;;;;;;;;;;4407663;32;20278;-56
2021/07/21 04:59:54;;;;;;;14.93;8.90;;;;;;;;;;4409015;32;20643;-56
2021/07/21 05:02:20;;;;;;;16.10;10.02;;;;;;;;;;4402886;32;20705;-55
2021/07/21 05:04:45;;;;;;;20.70;10.50;;;;;;;;;;4394069;32;20663;-55
2021/07/21 05:07:12;;;;;;;18.87;10.25;;;;;;;;;;4394503;32;20635;-57
2021/07/21 05:09:38;;;;;;;18.10;11.12;;;;;;;;;;4393951;32;20253;-57
2021/07/21 05:12:04;;;;;;;15.32;9.98;;;;;;;;;;4393401;32;20214;-55
2021/07/21 05:14:30;;;;;;;14.65;10.45;;;;;;;;;;4393713;32;20302;-55
2021/07/21 05:16:55;;;;;;;11.52;9.43;;;;;;;;;;4393958;32;20269;-55
2021/07/21 05:19:20;;;;;;;18.52;10.73;;;;;;;;;;4393516;32;20244;-55
2021/07/21 05:21:46;;;;;;;20.85;10.30;;;;;;;;;;4393462;32;20280;-55
2021/07/21 05:24:11;;;;;;;15.30;8.93;;;;;;;;;;4391985;32;20308;-56
2021/07/21 05:26:40;;;;;;;10.60;8.55;;;;;;;;;;4390096;32;20342;-55
2021/07/21 05:29:06;;;;;;;16.58;10.82;;;;;;;;;;4406534;32;20377;-55
2021/07/21 05:31:32;;;;;;;13.85;8.93;;;;;;;;;;4406655;32;20309;-56
2021/07/21 05:33:57;;;;;;;12.30;9.93;;;;;;;;;;4397721;32;20602;-55
2021/07/21 05:36:22;;;;;;;16.23;10.68;;;;;;;;;;4390237;32;20654;-55
2021/07/21 05:38:48;;;;;;;13.75;9.13;;;;;;;;;;4402277;32;20222;-56
2021/07/21 05:41:15;;;;;;;21.02;11.80;;;;;;;;;;4404943;32;20339;-55
2021/07/21 05:43:40;;;;;;;18.25;11.23;;;;;;;;;;4405821;32;20228;-56
2021/07/21 05:46:06;;;;;;;17.92;10.68;;;;;;;;;;4404952;32;20789;-56
2021/07/21 05:48:31;;;;;;;14.95;10.52;;;;;;;;;;4405672;32;20305;-55
2021/07/21 05:50:57;;;;;;;16.05;9.52;;;;;;;;;;4406556;32;20299;-56
2021/07/21 05:53:23;;;;;;;11.95;8.95;;;;;;;;;;4405650;32;20228;-55
2021/07/21 05:55:48;;;;;;;15.52;10.60;;;;;;;;;;4405728;32;20288;-55
2021/07/21 05:58:14;;;;;;;16.25;9.43;;;;;;;;;;4405087;32;20260;-55
2021/07/21 06:00:41;;;;;;;16.52;10.38;;;;;;;;;;4405725;32;20284;-55
2021/07/21 06:03:06;;;;;;;13.50;9.95;;;;;;;;;;4404807;32;20464;-57
2021/07/21 06:05:32;;;;;;;15.13;10.05;;;;;;;;;;4405086;32;20284;-57
2021/07/21 06:07:57;;;;;;;16.77;10.77;;;;;;;;;;4405295;32;20320;-55
2021/07/21 06:10:23;;;;;;;22.33;10.25;;;;;;;;;;4399722;32;20304;-55
2021/07/21 06:12:49;;;;;;;18.05;11.10;;;;;;;;;;4389982;32;20657;-55
2021/07/21 06:15:15;;;;;;;16.58;9.38;;;;;;;;;;4405022;32;20300;-54
2021/07/21 06:17:40;;;;;;;20.88;9.75;;;;;;;;;;4405494;32;20293;-55
2021/07/21 06:20:08;;;;;;;12.68;9.02;;;;;;;;;;4405811;32;20300;-55
2021/07/21 06:22:38;;;;;;;17.35;11.15;;;;;;;;;;4405007;32;20236;-56
2021/07/21 06:25:06;;;;;;;13.82;9.63;;;;;;;;;;4405920;32;20302;-54
2021/07/21 06:27:32;;;;;;;15.40;9.32;;;;;;;;;;4404582;32;20278;-56
2021/07/21 06:29:57;;;;;;;12.18;8.10;;;;;;;;;;4405185;32;20221;-55
2021/07/21 06:32:23;;;;;;;15.20;10.25;;;;;;;;;;4404352;32;20273;-55
2021/07/21 06:34:48;;;;;;;18.58;10.13;;;;;;;;;;4396259;32;20225;-55
2021/07/21 06:37:14;;;;;;;15.98;9.13;;;;;;;;;;4405162;32;20342;-54
2021/07/21 06:39:39;;;;;;;10.85;9.15;;;;;;;;;;4404318;32;20236;-55
2021/07/21 06:42:05;;;;;;;12.68;9.50;;;;;;;;;;4405502;32;20310;-56
2021/07/21 06:44:30;;;;;;;16.73;9.35;;;;;;;;;;4405642;32;20257;-56
2021/07/21 06:46:56;;;;;;;14.95;8.85;;;;;;;;;;4405650;32;20709;-55
2021/07/21 06:49:21;;;;;;;10.10;7.75;;;;;;;;;;4404154;32;20275;-54
2021/07/21 06:51:47;;;;;;;10.63;8.18;;;;;;;;;;4404290;32;20314;-55
2021/07/21 06:54:12;;;;;;;10.45;7.43;;;;;;;;;;4404542;32;20229;-55
2021/07/21 06:56:38;;;;;;;13.25;9.00;;;;;;;;;;4405075;32;20280;-56
2021/07/21 06:59:04;;;;;;;11.15;8.82;;;;;;;;;;4404999;32;20279;-55
2021/07/21 07:01:29;;;;;;;15.75;9.20;;;;;;;;;;4403561;32;20336;-56
2021/07/21 07:03:55;;;;;;;13.65;8.57;;;;;;;;;;4396997;32;20304;-54
2021/07/21 07:06:20;;;;;;;13.23;8.90;;;;;;;;;;4404332;32;20311;-55
2021/07/21 07:08:45;;;;;;;10.88;7.62;;;;;;;;;;4404130;32;20700;-55
2021/07/21 07:11:11;;;;;;;13.43;8.80;;;;;;;;;;4403648;32;20243;-56
2021/07/21 07:13:38;;;;;;;10.63;8.15;;;;;;;;;;4404395;32;20294;-55
2021/07/21 07:16:04;;;;;;;10.55;8.38;;;;;;;;;;4404839;32;20232;-55
2021/07/21 07:18:30;;;;;;;11.00;9.10;;;;;;;;;;4404279;32;20237;-55
2021/07/21 07:20:56;;;;;;;12.75;8.00;;;;;;;;;;4404730;32;20862;-56
2021/07/21 07:23:23;;;;;;;11.50;8.27;;;;;;;;;;4403788;32;20243;-54
2021/07/21 07:25:49;;;;;;;12.45;7.53;;;;;;;;;;4404200;32;20277;-56
2021/07/21 07:28:14;;;;;;;10.63;8.10;;;;;;;;;;4404645;32;20379;-56
2021/07/21 07:30:40;;;;;;;10.93;8.35;;;;;;;;;;4398503;32;20323;-57
2021/07/21 07:33:05;;;;;;;10.60;7.22;;;;;;;;;;4401435;32;20372;-55
2021/07/21 07:35:31;;;;;;;11.43;7.68;;;;;;;;;;4404270;32;20289;-55
2021/07/21 07:37:57;;;;;;;10.50;8.05;;;;;;;;;;4403798;32;20609;-55
2021/07/21 07:40:24;;;;;;;12.63;7.60;;;;;;;;;;4404005;32;20662;-55
2021/07/21 07:42:49;;;;;;;14.02;7.95;;;;;;;;;;4404513;32;20243;-55
2021/07/21 07:45:16;;;;;;;9.35;7.12;;;;;;;;;;4404517;32;20285;-55
2021/07/21 07:47:42;;;;;;;11.60;7.75;;;;;;;;;;4404699;32;20323;-55
2021/07/21 07:50:09;;;;;;;14.43;7.87;;;;;;;;;;4402500;32;20233;-56
2021/07/21 07:52:36;;;;;;;12.60;6.68;;;;;;;;;;4404041;32;20221;-56
2021/07/21 07:55:03;;;;;;;10.43;7.53;;;;;;;;;;4403599;32;20233;-55
2021/07/21 07:57:28;;;;;;;12.15;7.53;;;;;;;;;;4403991;32;20574;-56
2021/07/21 07:59:54;;;;;;;10.45;6.60;;;;;;;;;;4403135;32;20213;-56
2021/07/21 08:02:19;;;;;;;8.00;6.30;;;;;;;;;;4403610;32;20346;-55
2021/07/21 08:04:45;;;;;;;10.80;7.07;;;;;;;;;;4403259;32;20229;-55
2021/07/21 08:07:10;;;;;;;10.63;7.47;;;;;;;;;;4403221;32;20273;-55
2021/07/21 08:09:36;;;;;;;11.40;7.57;;;;;;;;;;4403120;32;20400;-55
2021/07/21 08:12:02;;;;;;;12.75;7.37;;;;;;;;;;4403942;32;20376;-56
2021/07/21 08:14:27;;;;;;;11.70;7.50;;;;;;;;;;4402724;32;20233;-55
2021/07/21 08:16:53;;;;;;;7.75;6.12;;;;;;;;;;4402248;32;20334;-56
2021/07/21 08:19:20;;;;;;;10.13;6.70;;;;;;;;;;4403256;32;20247;-55
2021/07/21 08:21:46;;;;;;;10.80;7.68;;;;;;;;;;4403893;32;20683;-55
2021/07/21 08:24:13;;;;;;;8.25;6.18;;;;;;;;;;4404038;32;20222;-55
2021/07/21 08:26:39;;;;;;;9.55;6.80;;;;;;;;;;4404018;32;20273;-55
2021/07/21 08:29:04;;;;;;;9.38;6.25;;;;;;;;;;4404230;32;20646;-55
2021/07/21 08:31:31;;;;;;;9.77;6.50;;;;;;;;;;4403361;32;20280;-55
2021/07/21 08:34:00;;;;;;;11.48;6.25;;;;;;;;;;4403572;32;20304;-56
2021/07/21 08:36:27;;;;;;;10.23;6.68;;;;;;;;;;4402288;32;20760;-56
2021/07/21 08:38:53;;;;;;;10.60;6.80;;;;;;;;;;4403186;32;20237;-54
2021/07/21 08:41:19;;;;;;;9.68;7.25;;;;;;;;;;4402110;32;20315;-55
2021/07/21 08:43:45;;;;;;;10.05;6.72;;;;;;;;;;4403247;32;20658;-55
2021/07/21 08:46:11;;;;;;;10.50;6.30;;;;;;;;;;4404235;32;20328;-56
2021/07/21 08:48:37;;;;;;;12.98;7.10;;;;;;;;;;4404523;32;20580;-55
2021/07/21 08:51:03;;;;;;;11.27;7.10;;;;;;;;;;4404245;32;20286;-55
2021/07/21 08:53:29;;;;;;;10.60;6.50;;;;;;;;;;4402344;32;20776;-55
2021/07/21 08:55:55;;;;;;;8.30;7.05;;;;;;;;;;4404308;32;20355;-56
2021/07/21 08:58:20;;;;;;;12.73;7.43;;;;;;;;;;4403671;32;20653;-55
2021/07/21 09:00:52;;;;;;;11.27;7.80;;;;;;;;;;4404235;32;20580;-56
2021/07/21 09:03:21;;;;;;;7.87;6.62;;;;;;;;;;4391645;32;20214;-55
2021/07/21 09:05:48;;;;;;;14.00;7.15;;;;;;;;;;4388736;32;20272;-55
2021/07/21 09:08:14;;;;;;;10.05;7.05;;;;;;;;;;4388385;32;20316;-56
2021/07/21 09:10:41;;;;;;;9.52;7.07;;;;;;;;;;4388499;32;20225;-55
2021/07/21 09:13:07;;;;;;;8.88;7.25;;;;;;;;;;4391344;32;20383;-56
2021/07/21 09:15:32;;;;;;;9.57;7.18;;;;;;;;;;4391458;32;20695;-56
2021/07/21 09:18:02;;;;;;;9.73;6.95;;;;;;;;;;4391499;32;20312;-55
2021/07/21 09:20:28;;;;;;;10.02;6.95;;;;;;;;;;4390652;32;20585;-55
2021/07/21 09:22:55;;;;;;;9.15;6.80;;;;;;;;;;4389785;32;20358;-56
2021/07/21 09:25:24;;;;;;;11.55;7.25;;;;;;;;;;4390803;32;20279;-55
2021/07/21 09:27:53;;;;;;;11.12;7.00;;;;;;;;;;4389771;32;20290;-55
2021/07/21 09:30:30;;;;;;;6.53;5.25;;;;;;;;;;4391366;32;20205;-56
2021/07/21 09:33:22;;;;;;;8.40;6.32;;;;;;;;;;4391342;32;20210;-55
2021/07/21 09:35:52;;;;;;;8.70;5.68;;;;;;;;;;4389040;32;20574;-56
2021/07/21 09:38:22;;;;;;;8.50;5.97;;;;;;;;;;4399509;32;20229;-56
2021/07/21 09:40:52;;;;;;;8.93;6.15;;;;;;;;;;4405039;32;20270;-55
2021/07/21 09:43:22;;;;;;;16.10;6.97;;;;;;;;;;4405917;32;20233;-56
2021/07/21 09:45:49;;;;;;;7.87;5.68;;;;;;;;;;4406182;32;20202;-56
2021/07/21 09:48:18;;;;;;;9.68;6.65;;;;;;;;;;4393308;32;20271;-56
2021/07/21 09:50:46;;;;;;;10.52;6.75;;;;;;;;;;4389520;32;20206;-55
2021/07/21 09:53:14;;;;;;;10.30;6.37;;;;;;;;;;4389601;32;20285;-55
2021/07/21 09:55:46;;;;;;;8.50;6.45;;;;;;;;;;4389506;32;20206;-56
2021/07/21 09:58:19;;;;;;;9.95;6.62;;;;;;;;;;4389575;32;20304;-56
2021/07/21 10:00:48;;;;;;;9.90;6.95;;;;;;;;;;4390580;32;20206;-55
2021/07/21 10:03:19;;;;;;;8.43;5.90;;;;;;;;;;4399657;32;20217;-55
2021/07/21 10:06:03;;;;;;;9.80;6.75;;;;;;;;;;4405377;32;20244;-56
2021/07/21 10:08:31;;;;;;;8.45;6.40;;;;;;;;;;4405402;32;20275;-56
2021/07/21 10:10:58;;;;;;;10.02;6.25;;;;;;;;;;4405272;32;20784;-56
2021/07/21 10:13:24;;;;;;;12.27;6.70;;;;;;;;;;4404346;32;20260;-56
2021/07/21 10:15:54;;;;;;;8.88;7.10;;;;;;;;;;4404476;32;20352;-56
2021/07/21 10:18:22;;;;;;;8.90;6.10;;;;;;;;;;4404013;32;20236;-54
2021/07/21 10:20:48;;;;;;;8.82;6.57;;;;;;;;;;4404993;32;20271;-55
2021/07/21 10:23:15;;;;;;;9.90;7.05;;;;;;;;;;4404697;32;20226;-56
2021/07/21 10:25:41;;;;;;;8.25;6.20;;;;;;;;;;4403894;32;20230;-56
2021/07/21 10:28:08;;;;;;;11.20;6.87;;;;;;;;;;4405158;32;20354;-56
2021/07/21 10:30:37;;;;;;;8.35;5.62;;;;;;;;;;4404728;32;20278;-56
2021/07/21 10:33:04;;;;;;;9.25;6.12;;;;;;;;;;4392607;32;20210;-56
2021/07/21 10:35:30;;;;;;;7.22;6.30;;;;;;;;;;4403858;32;20854;-57
2021/07/21 10:37:56;;;;;;;8.15;6.50;;;;;;;;;;4404016;32;20637;-56
2021/07/21 10:40:24;;;;;;;8.70;5.75;;;;;;;;;;4404410;32;20275;-55
2021/07/21 10:42:52;;;;;;;8.73;6.37;;;;;;;;;;4404589;32;20287;-56
2021/07/21 10:45:36;;;;;;;8.05;5.87;;;;;;;;;;4404943;32;20232;-56
2021/07/21 10:51:12;;;;;;;8.35;6.07;;;;;;;;;;4378372;32;20291;-57
2021/07/21 10:54:08;;;;;;;10.85;6.25;;;;;;;;;;4403975;32;20225;-56
2021/07/21 10:59:22;;;;;;;8.65;6.62;;;;;;;;;;4404544;32;20684;-55
2021/07/21 11:01:58;;;;;;;7.10;5.37;;;;;;;;;;4401927;32;20225;-55
2021/07/21 11:04:43;;;;;;;9.85;7.10;;;;;;;;;;4389315;32;20562;-55
2021/07/21 11:07:16;;;;;;;7.75;5.95;;;;;;;;;;4388006;32;20609;-55
2021/07/21 11:09:42;;;;;;;7.82;5.78;;;;;;;;;;4389158;32;20248;-56
2021/07/21 11:12:09;;;;;;;10.55;6.97;;;;;;;;;;4388868;32;20549;-56
2021/07/21 11:14:34;;;;;;;9.65;6.37;;;;;;;;;;4389231;32;20269;-56
2021/07/21 11:17:06;;;;;;;8.52;6.07;;;;;;;;;;4389147;32;20697;-57
2021/07/21 11:19:51;;;;;;;9.52;6.85;;;;;;;;;;4388476;32;20293;-55
2021/07/21 11:22:19;;;;;;;7.35;5.20;;;;;;;;;;4388898;32;20276;-57
2021/07/21 11:25:14;;;;;;;7.65;6.18;;;;;;;;;;4388862;32;20230;-56
2021/07/21 11:27:49;;;;;;;11.88;8.38;;;;;;;;;;4384800;32;20234;-56
2021/07/21 11:30:57;;;;;;;18.37;7.03;;;;;;;;;;4388621;32;20229;-56
2021/07/21 11:33:54;;;;;;;10.75;8.20;;;;;;;;;;4357332;32;20673;-56
2021/07/21 11:36:38;;;;;;;11.00;7.32;;;;;;;;;;4401181;32;20557;-56
2021/07/21 11:39:04;;;;;;;8.05;6.55;;;;;;;;;;4402522;32;20303;-56
2021/07/21 11:41:44;;;;;;;9.02;5.62;;;;;;;;;;4403164;32;20355;-56
2021/07/21 11:44:22;;;;;;;14.63;7.97;;;;;;;;;;4403777;32;20240;-56
2021/07/21 11:46:48;;;;;;;7.85;5.78;;;;;;;;;;4403382;32;20216;-57
2021/07/21 11:49:19;;;;;;;11.02;7.32;;;;;;;;;;4397923;32;20214;-56
2021/07/21 11:51:54;;;;;;;12.37;7.07;;;;;;;;;;4402307;32;20340;-56
2021/07/21 11:54:38;;;;;;;8.07;6.60;;;;;;;;;;4402776;32;20220;-56
2021/07/21 11:57:06;;;;;;;10.35;6.65;;;;;;;;;;4402907;32;20276;-56
2021/07/21 11:59:43;;;;;;;10.38;6.75;;;;;;;;;;4398915;32;20244;-56
2021/07/21 12:02:11;;;;;;;8.35;7.28;;;;;;;;;;4402154;32;20309;-56
2021/07/21 12:04:38;;;;;;;8.57;7.18;;;;;;;;;;4403362;32;20308;-56
2021/07/21 12:07:05;;;;;;;11.35;6.72;;;;;;;;;;4403015;32;20225;-57
2021/07/21 12:09:38;;;;;;;8.63;7.30;;;;;;;;;;4403207;32;20251;-56
2021/07/21 12:12:09;;;;;;;9.00;7.00;;;;;;;;;;4403586;32;20268;-57
2021/07/21 12:14:36;;;;;;;7.97;6.43;;;;;;;;;;4401919;32;20826;-57
2021/07/21 12:17:10;;;;;;;7.95;6.10;;;;;;;;;;4401375;32;20210;-57
2021/07/21 12:19:57;;;;;;;9.52;6.15;;;;;;;;;;4403010;32;20292;-56
2021/07/21 12:22:24;;;;;;;10.73;7.50;;;;;;;;;;4403319;32;20675;-57
2021/07/21 12:24:52;;;;;;;9.73;7.18;;;;;;;;;;4403293;32;20646;-56
2021/07/21 12:27:38;;;;;;;9.27;7.43;;;;;;;;;;4403311;32;20672;-56
2021/07/21 12:30:20;;;;;;;8.85;6.65;;;;;;;;;;4403423;32;20217;-57
2021/07/21 12:32:47;;;;;;;8.98;6.85;;;;;;;;;;4401692;32;20241;-56
2021/07/21 12:35:14;;;;;;;8.23;6.95;;;;;;;;;;4402835;32;20208;-56
2021/07/21 12:37:44;;;;;;;8.82;6.57;;;;;;;;;;4402982;32;20225;-57
2021/07/21 12:40:19;;;;;;;9.15;6.75;;;;;;;;;;4402496;32;20269;-57
2021/07/21 12:42:46;;;;;;;11.95;6.90;;;;;;;;;;4402191;32;20233;-56
2021/07/21 12:45:14;;;;;;;12.70;7.80;;;;;;;;;;4388564;32;20678;-56
2021/07/21 12:47:45;;;;;;;9.27;6.62;;;;;;;;;;4403729;32;20718;-57
2021/07/21 12:50:14;;;;;;;12.45;7.25;;;;;;;;;;4403566;32;20329;-56
2021/07/21 12:52:45;;;;;;;9.60;7.47;;;;;;;;;;4395224;32;20332;-57
2021/07/21 12:55:13;;;;;;;7.47;6.75;;;;;;;;;;4388993;32;20245;-56
2021/07/21 12:57:50;;;;;;;9.40;6.53;;;;;;;;;;4389792;32;20414;-57
2021/07/21 13:00:16;;;;;;;10.15;7.32;;;;;;;;;;4390716;32;20625;-57
2021/07/21 13:03:04;;;;;;;10.57;6.93;;;;;;;;;;4391024;32;20211;-57
2021/07/21 13:05:31;;;;;;;9.77;7.07;;;;;;;;;;4391124;32;20251;-55
2021/07/21 13:07:59;;;;;;;7.45;6.53;;;;;;;;;;4391328;32;20314;-55
2021/07/21 13:10:27;;;;;;;9.20;6.57;;;;;;;;;;4389761;32;20265;-56
2021/07/21 13:12:52;;;;;;;8.13;6.28;;;;;;;;;;4389945;32;20343;-56
2021/07/21 13:15:32;;;;;;;9.05;7.12;;;;;;;;;;4391209;32;20284;-57
2021/07/21 13:18:11;;;;;;;9.95;6.95;;;;;;;;;;4390539;32;20193;-56
2021/07/21 13:20:43;;;;;;;9.77;7.28;;;;;;;;;;4390542;32;20368;-56
2021/07/21 13:23:20;;;;;;;7.32;6.10;;;;;;;;;;4390633;32;20355;-57
2021/07/21 13:25:48;;;;;;;8.45;6.62;;;;;;;;;;4402231;32;20333;-58
2021/07/21 13:28:33;;;;;;;12.90;8.15;;;;;;;;;;4405446;32;20230;-57
2021/07/21 13:31:20;;;;;;;13.13;6.65;;;;;;;;;;4405464;32;20221;-57
2021/07/21 13:33:53;;;;;;;8.05;6.07;;;;;;;;;;4405409;32;20213;-57
2021/07/21 13:36:22;;;;;;;8.35;6.10;;;;;;;;;;4405759;32;20194;-56
2021/07/21 13:38:59;;;;;;;9.70;6.62;;;;;;;;;;4405323;32;20568;-57
2021/07/21 13:41:31;;;;;;;12.15;6.75;;;;;;;;;;4404955;32;20205;-57
2021/07/21 13:43:59;;;;;;;10.32;7.35;;;;;;;;;;4403398;32;20296;-56
2021/07/21 13:46:30;;;;;;;11.23;7.32;;;;;;;;;;4405421;32;20205;-56
2021/07/21 13:48:56;;;;;;;20.65;7.53;;;;;;;;;;4403092;32;20218;-57
2021/07/21 13:51:28;;;;;;;9.02;7.12;;;;;;;;;;4401912;32;20298;-57
2021/07/21 13:53:53;;;;;;;8.98;6.28;;;;;;;;;;4403856;32;20217;-57
2021/07/21 13:56:19;;;;;;;11.23;6.97;;;;;;;;;;4403992;32;20276;-56
2021/07/21 13:58:44;;;;;;;8.35;7.10;;;;;;;;;;4404258;32;20213;-56
2021/07/21 14:01:10;;;;;;;10.23;7.25;;;;;;;;;;4393630;32;20285;-57
2021/07/21 14:03:35;;;;;;;9.60;6.57;;;;;;;;;;4389668;32;20345;-57
2021/07/21 14:06:01;;;;;;;9.45;5.97;;;;;;;;;;4389176;32;20190;-57
2021/07/21 14:08:26;;;;;;;11.35;7.62;;;;;;;;;;4391830;32;20338;-57
2021/07/21 14:10:52;;;;;;;9.63;6.50;;;;;;;;;;4404154;32;20213;-57
2021/07/21 14:13:17;;;;;;;8.52;6.55;;;;;;;;;;4403501;32;20282;-57
2021/07/21 14:15:43;;;;;;;8.10;6.85;;;;;;;;;;4402395;32;20641;-57
2021/07/21 14:18:08;;;;;;;8.73;6.57;;;;;;;;;;4403038;32;20788;-57
2021/07/21 14:20:34;;;;;;;10.00;7.22;;;;;;;;;;4402547;32;20222;-56
2021/07/21 14:22:59;;;;;;;7.85;5.70;;;;;;;;;;4404046;32;20301;-56
2021/07/21 14:25:25;;;;;;;9.88;6.32;;;;;;;;;;4404180;32;20420;-56
2021/07/21 14:27:50;;;;;;;8.68;6.43;;;;;;;;;;4403323;32;20292;-56
2021/07/21 14:30:17;;;;;;;7.18;5.70;;;;;;;;;;4404659;32;20300;-56
2021/07/21 14:32:43;;;;;;;12.70;6.45;;;;;;;;;;4389339;32;20289;-56
2021/07/21 14:35:08;;;;;;;7.85;5.80;;;;;;;;;;4388622;32;20256;-56
2021/07/21 14:37:34;;;;;;;7.30;5.40;;;;;;;;;;4393112;32;20319;-57
2021/07/21 14:40:00;;;;;;;7.07;5.53;;;;;;;;;;4404203;32;20318;-57
2021/07/21 14:42:25;;;;;;;9.98;6.68;;;;;;;;;;4396005;32;20201;-57
2021/07/21 14:44:51;;;;;;;9.00;6.47;;;;;;;;;;4396272;32;20360;-57
2021/07/21 14:47:16;;;;;;;7.78;5.87;;;;;;;;;;4396230;32;20442;-56
2021/07/21 14:49:42;;;;;;;7.15;6.45;;;;;;;;;;4391075;32;20222;-56